Time;durP1;ratioP1;P1;durP2;ratioP2;P2;SDS_P1;SDS_P2;PMS_P1;PMS_P2;Temp;Humidity;BMP_temperature;BMP_pressure;BME280_temperature;BME280_humidity;BME280_pressure;Samples;Min_cycle;Max_cycle;Signal;HPM_P1;HPM_P2
2023/08/15 00:01:24;;;;;;;12.50;6.35;;;;;;;21.96;66.67;100988.61;1751527;81;21066;-60
2023/08/15 00:03:53;;;;;;;12.58;5.95;;;;;;;21.94;66.77;100985.78;1751396;82;21451;-60
2023/08/15 00:06:22;;;;;;;11.15;5.92;;;;;;;21.89;66.96;100985.16;1751295;81;21022;-59
2023/08/15 00:08:54;;;;;;;10.72;6.10;;;;;;;21.87;67.07;100981.79;1751578;82;21439;-60
2023/08/15 00:11:22;;;;;;;8.60;5.55;;;;;;;21.85;67.22;100981.20;1751309;81;21054;-60
2023/08/15 00:13:55;;;;;;;10.15;5.20;;;;;;;21.85;67.25;100992.36;1751583;81;21078;-59
2023/08/15 00:16:21;;;;;;;11.05;5.85;;;;;;;21.81;67.31;100990.64;1751370;81;21035;-59
2023/08/15 00:18:50;;;;;;;10.70;5.75;;;;;;;21.79;67.46;100982.23;1751267;82;21019;-60
2023/08/15 00:21:18;;;;;;;10.70;6.10;;;;;;;21.77;67.61;100986.68;1751692;81;21063;-60
2023/08/15 00:23:46;;;;;;;11.88;6.53;;;;;;;21.75;67.70;100990.27;1751441;82;21494;-61
2023/08/15 00:26:15;;;;;;;10.13;5.95;;;;;;;21.73;67.82;100995.27;1751582;82;21058;-61
2023/08/15 00:28:45;;;;;;;11.60;6.17;;;;;;;21.71;67.88;100993.84;1751346;82;20979;-61
2023/08/15 00:31:13;;;;;;;12.00;6.35;;;;;;;21.63;68.02;101000.70;1751640;82;20991;-62
2023/08/15 00:33:42;;;;;;;13.20;6.42;;;;;;;21.58;68.13;100996.44;1751331;82;21066;-60
2023/08/15 00:36:10;;;;;;;11.68;5.70;;;;;;;21.59;68.21;100997.28;1751258;81;21572;-60
2023/08/15 00:38:39;;;;;;;12.45;6.00;;;;;;;21.57;68.24;100997.55;1751220;81;21010;-59
2023/08/15 00:41:08;;;;;;;19.23;8.30;;;;;;;21.54;68.31;101002.23;1751228;82;21030;-61
2023/08/15 00:43:37;;;;;;;12.65;6.62;;;;;;;21.52;68.44;101003.05;1751451;82;21026;-60
2023/08/15 00:46:07;;;;;;;13.68;6.97;;;;;;;21.50;68.53;101003.84;1751404;82;21078;-60
2023/08/15 00:48:36;;;;;;;10.53;6.40;;;;;;;21.46;68.58;100998.48;1751401;82;21062;-63
2023/08/15 00:51:07;;;;;;;10.28;6.40;;;;;;;21.42;68.67;101000.91;1751417;82;21054;-60
2023/08/15 00:53:36;;;;;;;10.50;6.30;;;;;;;21.42;68.68;101009.83;1746836;81;21022;-60
2023/08/15 00:56:05;;;;;;;9.05;5.78;;;;;;;21.40;68.77;101000.88;1751403;81;21439;-61
2023/08/15 00:58:34;;;;;;;8.45;6.15;;;;;;;21.42;68.80;101011.22;1746641;81;21062;-60
2023/08/15 01:01:03;;;;;;;8.80;5.97;;;;;;;21.40;68.83;101005.89;1722469;82;21034;-59
2023/08/15 01:03:31;;;;;;;12.37;6.30;;;;;;;21.39;68.84;101004.75;1751486;81;20999;-60
2023/08/15 01:06:01;;;;;;;8.23;5.70;;;;;;;21.40;68.81;101009.23;1751522;81;21074;-59
2023/08/15 01:08:31;;;;;;;10.55;6.10;;;;;;;21.36;68.72;101000.53;1751387;82;21058;-61
2023/08/15 01:11:00;;;;;;;9.75;6.08;;;;;;;21.33;68.67;101002.98;1751439;82;21066;-60
2023/08/15 01:13:35;;;;;;;9.48;5.85;;;;;;;21.31;68.67;101005.19;1751393;81;21024;-60
2023/08/15 01:16:05;;;;;;;9.78;5.90;;;;;;;21.30;68.59;100999.31;1751591;82;21062;-59
2023/08/15 01:18:41;;;;;;;9.25;5.40;;;;;;;21.30;68.61;100997.92;1751580;81;21054;-60
2023/08/15 01:21:11;;;;;;;8.93;5.70;;;;;;;21.28;68.52;100995.94;1751565;82;21028;-60
2023/08/15 01:23:46;;;;;;;9.38;5.55;;;;;;;21.28;68.51;100991.20;1751346;81;21524;-60
2023/08/15 01:26:14;;;;;;;8.78;5.78;;;;;;;21.28;68.47;100988.42;1751518;81;21024;-60
2023/08/15 01:28:43;;;;;;;8.98;5.30;;;;;;;21.28;68.45;100993.15;1751300;81;21011;-61
2023/08/15 01:31:32;;;;;;;8.70;5.45;;;;;;;21.25;68.42;100990.32;1751352;81;21485;-61
2023/08/15 01:34:21;;;;;;;8.48;5.72;;;;;;;21.23;68.40;100993.91;1751257;82;21105;-61
2023/08/15 01:36:54;;;;;;;9.68;5.45;;;;;;;21.22;68.36;100996.37;1751300;81;21129;-60
2023/08/15 01:39:27;;;;;;;9.10;5.20;;;;;;;21.20;68.30;100991.05;1751383;81;21475;-60
2023/08/15 01:42:01;;;;;;;9.35;4.87;;;;;;;21.23;68.14;100998.64;1751078;82;21114;-60
2023/08/15 01:44:32;;;;;;;9.00;5.15;;;;;;;21.24;68.11;100988.63;1751339;81;21054;-59
2023/08/15 01:47:00;;;;;;;7.10;5.53;;;;;;;21.24;68.04;100991.42;1751710;82;21058;-60
2023/08/15 01:49:30;;;;;;;6.20;5.05;;;;;;;21.21;67.99;100984.92;1746809;81;21003;-59
2023/08/15 01:52:00;;;;;;;8.40;4.85;;;;;;;21.18;68.04;100986.28;1751366;81;21730;-60
2023/08/15 01:54:31;;;;;;;7.72;5.22;;;;;;;21.17;68.04;100990.16;1751527;82;20983;-59
2023/08/15 01:57:00;;;;;;;7.53;5.17;;;;;;;21.11;68.13;100985.60;1751291;82;21055;-59
2023/08/15 01:59:30;;;;;;;8.08;5.30;;;;;;;21.05;68.23;100990.80;1751661;81;21046;-61
2023/08/15 02:01:58;;;;;;;6.10;4.92;;;;;;;20.97;68.46;100994.00;1751310;82;21455;-61
2023/08/15 02:04:27;;;;;;;9.00;5.25;;;;;;;20.94;68.74;100995.89;1751370;81;21070;-60
2023/08/15 02:06:57;;;;;;;9.03;5.42;;;;;;;20.91;68.91;100990.83;1746914;81;21126;-61
2023/08/15 02:09:26;;;;;;;9.40;5.40;;;;;;;20.91;68.98;100986.66;1751612;81;21106;-60
2023/08/15 02:11:55;;;;;;;7.42;5.15;;;;;;;20.93;69.09;100990.58;1751553;82;21066;-60
2023/08/15 02:14:24;;;;;;;7.90;5.67;;;;;;;20.94;69.11;100994.50;1751351;82;21031;-60
2023/08/15 02:16:54;;;;;;;8.08;5.50;;;;;;;20.97;69.04;100987.58;1751225;82;21482;-60
2023/08/15 02:19:23;;;;;;;7.60;4.97;;;;;;;20.99;68.93;100990.96;1751229;82;21062;-59
2023/08/15 02:21:51;;;;;;;7.65;5.22;;;;;;;20.98;68.73;100989.27;1751301;82;21038;-60
2023/08/15 02:24:21;;;;;;;9.93;5.33;;;;;;;20.98;68.66;100990.12;1729020;82;21479;-60
2023/08/15 02:26:50;;;;;;;6.80;5.30;;;;;;;20.99;68.58;100991.80;1715320;84;21094;-60
2023/08/15 02:29:19;;;;;;;7.60;4.97;;;;;;;20.97;68.55;100993.16;1715505;83;21583;-61
2023/08/15 02:31:47;;;;;;;13.68;5.47;;;;;;;20.99;68.60;100993.75;1715390;84;21011;-60
2023/08/15 02:34:17;;;;;;;8.58;5.72;;;;;;;21.00;68.55;100990.70;1715333;84;21014;-61
2023/08/15 02:36:49;;;;;;;9.43;5.40;;;;;;;20.99;68.57;100993.20;1715257;83;21042;-60
2023/08/15 02:39:17;;;;;;;8.30;5.17;;;;;;;20.94;68.72;100997.29;1715337;83;21010;-60
2023/08/15 02:41:46;;;;;;;15.05;6.10;;;;;;;20.90;68.88;100991.92;1715356;84;21451;-63
2023/08/15 02:44:15;;;;;;;8.23;5.60;;;;;;;20.87;68.93;100991.03;1715343;84;21646;-60
2023/08/15 02:46:43;;;;;;;12.30;6.10;;;;;;;20.83;69.07;100996.81;1715536;84;21054;-60
2023/08/15 02:49:13;;;;;;;9.53;5.97;;;;;;;20.80;69.29;100991.71;1715586;83;21102;-60
2023/08/15 02:51:42;;;;;;;10.58;6.00;;;;;;;20.80;69.45;100998.67;1715389;84;21038;-60
2023/08/15 02:54:10;;;;;;;8.53;5.72;;;;;;;20.79;69.59;100999.77;1715548;84;21062;-60
2023/08/15 02:56:40;;;;;;;8.93;5.87;;;;;;;20.80;69.60;100997.28;1715296;84;21470;-60
2023/08/15 02:59:10;;;;;;;12.50;6.42;;;;;;;20.81;69.63;101008.20;1715618;84;21003;-61
2023/08/15 03:01:38;;;;;;;18.37;7.00;;;;;;;20.83;69.57;101007.95;1715516;84;21019;-59
2023/08/15 03:04:09;;;;;;;13.00;6.87;;;;;;;20.81;69.59;101015.17;1715564;84;21062;-59
2023/08/15 03:06:37;;;;;;;10.88;6.70;;;;;;;20.77;69.61;101018.12;1715505;84;21098;-59
2023/08/15 03:09:06;;;;;;;10.20;6.50;;;;;;;20.74;69.67;101022.80;1715527;84;21039;-59
2023/08/15 03:11:35;;;;;;;8.43;6.65;;;;;;;20.71;69.85;101023.84;1715336;83;21074;-60
2023/08/15 03:14:04;;;;;;;13.55;6.87;;;;;;;20.67;70.15;101031.02;1715505;84;21014;-59
2023/08/15 03:16:33;;;;;;;9.45;6.35;;;;;;;20.63;70.38;101030.66;1715526;84;21010;-59
2023/08/15 03:19:02;;;;;;;11.53;6.87;;;;;;;20.63;70.59;101032.61;1715546;82;21011;-59
2023/08/15 03:21:31;;;;;;;11.28;6.85;;;;;;;20.64;70.72;101035.69;1715533;84;21074;-61
2023/08/15 03:23:59;;;;;;;9.83;7.17;;;;;;;20.65;70.71;101038.77;1730521;81;21501;-61
2023/08/15 03:26:28;;;;;;;15.63;7.30;;;;;;;20.67;70.71;101031.86;1761522;81;20994;-60
2023/08/15 03:28:57;;;;;;;9.35;6.70;;;;;;;20.68;70.70;101043.30;1761415;81;21046;-60
2023/08/15 03:31:26;;;;;;;10.05;7.15;;;;;;;20.69;70.74;101037.18;1761681;81;21050;-60
2023/08/15 03:33:57;;;;;;;12.98;7.20;;;;;;;20.70;70.80;101029.13;1761513;81;21446;-59
2023/08/15 03:36:25;;;;;;;17.52;7.35;;;;;;;20.70;70.88;101036.93;1761573;81;21463;-60
2023/08/15 03:38:54;;;;;;;15.70;6.92;;;;;;;20.72;70.92;101038.08;1761679;81;21011;-59
2023/08/15 03:41:23;;;;;;;11.80;6.95;;;;;;;20.73;70.90;101046.18;1761517;81;21161;-60
2023/08/15 03:43:52;;;;;;;12.40;7.12;;;;;;;20.74;70.98;101040.06;1761622;81;21015;-60
2023/08/15 03:46:20;;;;;;;13.20;7.40;;;;;;;20.76;71.12;101050.41;1761567;81;21034;-60
2023/08/15 03:48:49;;;;;;;11.60;6.75;;;;;;;20.76;71.23;101054.03;1761529;81;21030;-60
2023/08/15 03:51:20;;;;;;;13.08;6.65;;;;;;;20.79;71.31;101052.14;1761729;81;20991;-59
2023/08/15 03:53:50;;;;;;;11.57;6.60;;;;;;;20.82;71.22;101052.23;1760479;81;21055;-60
2023/08/15 03:56:19;;;;;;;11.60;6.62;;;;;;;20.85;71.14;101047.55;1761433;81;21023;-60
2023/08/15 03:58:49;;;;;;;20.45;6.83;;;;;;;20.86;71.12;101045.91;1761361;81;21034;-60
2023/08/15 04:01:18;;;;;;;10.88;6.62;;;;;;;20.87;71.42;101045.36;1761478;81;21115;-59
2023/08/15 04:03:50;;;;;;;14.25;7.40;;;;;;;20.87;71.53;101041.18;1761513;81;21544;-59
2023/08/15 04:06:18;;;;;;;11.73;7.30;;;;;;;20.92;71.60;101051.58;1761735;81;21520;-59
2023/08/15 04:08:47;;;;;;;15.13;6.85;;;;;;;20.94;71.79;101041.86;1761497;81;21038;-59
2023/08/15 04:11:16;;;;;;;11.90;6.97;;;;;;;20.98;71.96;101046.39;1761461;81;21054;-61
2023/08/15 04:13:44;;;;;;;11.97;7.28;;;;;;;21.04;71.87;101040.66;1761629;81;21477;-60
2023/08/15 04:16:15;;;;;;;17.00;8.25;;;;;;;21.09;71.61;101040.75;1761642;81;21034;-60
2023/08/15 04:18:44;;;;;;;19.82;8.38;;;;;;;21.16;71.57;101040.58;1761735;81;21042;-61
2023/08/15 04:21:12;;;;;;;39.23;9.78;;;;;;;21.19;71.60;101043.71;1761494;81;21030;-60
2023/08/15 04:23:41;;;;;;;25.23;8.63;;;;;;;21.26;71.55;101044.13;1760735;81;21073;-60
2023/08/15 04:26:10;;;;;;;18.40;7.97;;;;;;;21.32;71.33;101040.33;1742863;82;21028;-60
2023/08/15 04:28:39;;;;;;;12.60;8.13;;;;;;;21.38;71.25;101045.73;1742958;82;21074;-61
2023/08/15 04:31:07;;;;;;;18.10;7.80;;;;;;;21.45;70.97;101041.38;1743089;82;21023;-60
2023/08/15 04:33:36;;;;;;;21.52;8.83;;;;;;;21.51;70.62;101045.42;1742882;82;21027;-59
2023/08/15 04:36:05;;;;;;;14.53;7.85;;;;;;;21.58;70.47;101049.44;1743106;82;21023;-60
2023/08/15 04:38:33;;;;;;;17.52;7.80;;;;;;;21.63;70.73;101056.48;1742812;82;21047;-61
2023/08/15 04:41:05;;;;;;;14.58;7.87;;;;;;;21.69;70.90;101054.06;1742941;82;21044;-60
2023/08/15 04:43:34;;;;;;;11.35;7.62;;;;;;;21.75;70.80;101057.23;1742782;82;21521;-59
2023/08/15 04:46:02;;;;;;;22.07;9.53;;;;;;;21.84;70.41;101050.66;1742892;82;21067;-59
2023/08/15 04:48:31;;;;;;;12.90;8.28;;;;;;;21.92;70.12;101049.38;1743040;82;21027;-60
2023/08/15 04:51:00;;;;;;;13.03;9.38;;;;;;;22.02;69.77;101057.89;1742684;82;21513;-60
2023/08/15 04:53:29;;;;;;;18.00;9.85;;;;;;;22.10;69.10;101054.69;1742987;82;21035;-61
2023/08/15 04:55:58;;;;;;;16.87;9.28;;;;;;;22.20;68.61;101056.81;1742851;82;21035;-60
2023/08/15 04:58:27;;;;;;;12.00;8.63;;;;;;;22.28;68.19;101056.36;1742785;82;21071;-60
2023/08/15 05:00:55;;;;;;;15.05;8.50;;;;;;;22.37;67.79;101064.57;1743004;82;21055;-61
2023/08/15 05:03:26;;;;;;;14.98;8.78;;;;;;;22.44;67.32;101061.03;1703399;84;21029;-60
2023/08/15 05:05:55;;;;;;;20.30;9.00;;;;;;;22.52;66.97;101060.57;1703254;84;21037;-60
2023/08/15 05:08:24;;;;;;;16.97;8.85;;;;;;;22.62;66.77;101059.84;1703396;84;21033;-60
2023/08/15 05:10:54;;;;;;;15.90;9.85;;;;;;;22.72;66.74;101061.36;1680024;84;21090;-60
2023/08/15 05:13:24;;;;;;;18.50;9.78;;;;;;;22.81;66.64;101055.66;1703426;84;21997;-61
2023/08/15 05:15:52;;;;;;;16.00;9.93;;;;;;;22.91;66.27;101060.52;1703235;84;21053;-60
2023/08/15 05:18:21;;;;;;;18.30;11.10;;;;;;;23.01;65.93;101062.02;1703293;84;21173;-60
2023/08/15 05:20:50;;;;;;;19.27;10.72;;;;;;;23.10;65.78;101057.63;1711722;82;21099;-60
2023/08/15 05:23:20;;;;;;;20.97;10.90;;;;;;;23.20;65.74;101058.28;1742960;82;21063;-60
2023/08/15 05:25:48;;;;;;;27.87;11.63;;;;;;;23.29;65.45;101060.87;1742720;82;21126;-60
2023/08/15 05:28:18;;;;;;;29.77;12.25;;;;;;;23.40;65.42;101057.06;1743000;82;21152;-60
2023/08/15 05:30:47;;;;;;;26.93;12.33;;;;;;;23.49;65.24;101055.48;1743026;82;21043;-61
2023/08/15 05:33:16;;;;;;;30.25;12.98;;;;;;;23.57;65.15;101060.62;1720447;82;21055;-61
2023/08/15 05:35:44;;;;;;;30.43;13.80;;;;;;;23.64;65.11;101057.03;1743002;82;21043;-62
2023/08/15 05:38:13;;;;;;;28.23;13.10;;;;;;;23.70;65.14;101054.56;1743000;82;21047;-61
2023/08/15 05:40:41;;;;;;;25.23;11.97;;;;;;;23.76;65.12;101054.04;1742886;82;21078;-61
2023/08/15 05:43:10;;;;;;;27.80;13.75;;;;;;;23.82;64.97;101052.12;1742825;82;21071;-60
2023/08/15 05:45:39;;;;;;;30.32;13.25;;;;;;;23.89;64.92;101053.56;1742731;82;21517;-61
2023/08/15 05:48:07;;;;;;;33.38;13.75;;;;;;;23.95;64.89;101052.48;1742752;82;21020;-60
2023/08/15 05:50:38;;;;;;;32.65;13.00;;;;;;;24.00;64.84;101051.67;1742790;82;21039;-63
2023/08/15 05:53:07;;;;;;;30.50;13.95;;;;;;;24.05;64.79;101058.70;1742841;82;21499;-60
2023/08/15 05:55:35;;;;;;;32.28;12.50;;;;;;;24.11;64.67;101059.05;1743026;82;21078;-61
2023/08/15 05:58:04;;;;;;;27.22;12.73;;;;;;;24.16;64.47;101058.23;1742857;82;21090;-60
2023/08/15 06:00:33;;;;;;;34.05;13.35;;;;;;;24.21;64.31;101056.85;1742864;82;21027;-61
2023/08/15 06:03:02;;;;;;;25.40;12.75;;;;;;;24.25;64.16;101060.23;1742918;82;21259;-61
2023/08/15 06:05:31;;;;;;;26.35;11.70;;;;;;;24.30;63.64;101056.09;1742945;82;21066;-59
2023/08/15 06:08:00;;;;;;;24.57;9.95;;;;;;;24.34;63.10;101053.03;1742800;82;21019;-60
2023/08/15 06:10:32;;;;;;;26.33;10.65;;;;;;;24.40;62.36;101061.45;1742908;82;20995;-61
2023/08/15 06:13:01;;;;;;;23.92;10.70;;;;;;;24.46;61.85;101060.36;1742865;82;21094;-61
2023/08/15 06:15:30;;;;;;;19.67;9.60;;;;;;;24.52;61.39;101060.66;1742918;82;21098;-61
2023/08/15 06:17:58;;;;;;;23.83;10.78;;;;;;;24.58;60.82;101060.97;1742923;82;21003;-60
2023/08/15 06:20:27;;;;;;;15.35;8.05;;;;;;;24.62;60.35;101060.70;1742648;82;21436;-61
2023/08/15 06:22:56;;;;;;;16.90;8.53;;;;;;;24.68;60.08;101058.20;1742896;82;21431;-61
2023/08/15 06:25:25;;;;;;;11.33;7.95;;;;;;;24.74;59.50;101064.13;1742722;82;21043;-61
2023/08/15 06:27:54;;;;;;;12.75;8.18;;;;;;;24.80;59.04;101053.77;1742908;82;21051;-62
2023/08/15 06:30:23;;;;;;;14.87;8.33;;;;;;;24.88;58.76;101058.84;1742860;82;21031;-59
2023/08/15 06:32:51;;;;;;;16.30;9.40;;;;;;;24.95;58.57;101056.61;1742950;82;21106;-60
2023/08/15 06:35:27;;;;;;;16.57;8.15;;;;;;;25.09;58.54;101059.75;1742905;82;21046;-61
2023/08/15 06:37:50;;;;;;;17.50;8.03;;;;;;;25.39;58.11;101049.98;1742894;82;21479;-63
2023/08/15 06:40:19;;;;;;;13.78;7.55;;;;;;;25.80;57.38;101062.61;1742782;82;20999;-61
2023/08/15 06:42:48;;;;;;;20.08;8.10;;;;;;;26.31;55.96;101059.70;1743039;82;21031;-61
2023/08/15 06:45:18;;;;;;;24.45;11.22;;;;;;;26.84;54.80;101057.53;1742770;82;21015;-61
2023/08/15 06:47:48;;;;;;;16.25;8.83;;;;;;;27.40;52.91;101052.13;1742996;82;21055;-60
2023/08/15 06:50:18;;;;;;;20.75;10.03;;;;;;;27.97;51.58;101057.56;1742814;82;21299;-61
2023/08/15 06:52:47;;;;;;;14.28;8.10;;;;;;;28.48;50.62;101059.24;1743025;82;21094;-61
2023/08/15 06:55:17;;;;;;;17.15;8.48;;;;;;;28.99;49.14;101055.78;1743160;82;21066;-61
2023/08/15 06:57:46;;;;;;;15.03;8.20;;;;;;;29.48;47.55;101055.90;1743116;82;21035;-60
2023/08/15 07:00:16;;;;;;;12.82;7.62;;;;;;;29.88;46.69;101050.92;1743096;82;21098;-61
2023/08/15 07:02:45;;;;;;;20.82;8.40;;;;;;;30.24;45.66;101051.13;1744455;82;21071;-60
2023/08/15 07:05:15;;;;;;;19.73;8.55;;;;;;;30.64;43.80;101054.89;1742963;82;21059;-61
2023/08/15 07:07:44;;;;;;;17.05;7.58;;;;;;;30.90;43.85;101048.91;1742875;82;21051;-61
2023/08/15 07:10:12;;;;;;;16.07;8.28;;;;;;;31.24;42.71;101045.61;1743057;82;21483;-60
2023/08/15 07:12:41;;;;;;;13.25;8.00;;;;;;;31.60;41.95;101055.45;1742935;82;21109;-60
2023/08/15 07:15:10;;;;;;;22.67;10.58;;;;;;;31.95;41.00;101053.72;1742941;82;21035;-60
2023/08/15 07:17:39;;;;;;;13.50;6.80;;;;;;;32.27;39.91;101051.72;1742831;82;21082;-60
2023/08/15 07:20:10;;;;;;;10.85;7.03;;;;;;;32.40;38.30;101049.34;1742826;82;21059;-61
2023/08/15 07:22:39;;;;;;;13.95;7.03;;;;;;;32.42;38.30;101052.69;1743057;82;21932;-62
2023/08/15 07:25:08;;;;;;;11.08;6.22;;;;;;;32.50;38.84;101050.47;1744835;82;21046;-61
2023/08/15 07:27:37;;;;;;;13.98;6.10;;;;;;;32.72;38.06;101053.80;1751645;82;21084;-61
2023/08/15 07:30:07;;;;;;;11.40;6.30;;;;;;;32.89;37.57;101055.86;1751394;82;21011;-62
2023/08/15 07:32:37;;;;;;;13.08;5.67;;;;;;;33.04;37.65;101054.79;1751517;82;21023;-61
2023/08/15 07:35:07;;;;;;;8.90;4.53;;;;;;;33.24;36.66;101052.48;1751499;82;21058;-60
2023/08/15 07:37:37;;;;;;;10.65;4.85;;;;;;;33.51;35.98;101052.16;1751317;82;21524;-60
2023/08/15 07:40:11;;;;;;;11.30;5.72;;;;;;;33.71;35.70;101059.14;1751731;82;21127;-60
2023/08/15 07:42:42;;;;;;;4.80;3.70;;;;;;;33.88;35.08;101061.17;1751324;82;21062;-61
2023/08/15 07:45:11;;;;;;;8.10;4.20;;;;;;;34.15;34.06;101053.63;1751524;81;21119;-62
2023/08/15 07:47:40;;;;;;;7.62;4.08;;;;;;;34.30;33.66;101058.75;1751437;81;21518;-61
2023/08/15 07:50:21;;;;;;;6.10;3.90;;;;;;;34.41;33.53;101064.92;1751281;82;21054;-61
2023/08/15 07:52:51;;;;;;;7.53;4.42;;;;;;;34.54;33.03;101071.58;1750388;80;21512;-63
2023/08/15 07:55:22;;;;;;;7.70;4.58;;;;;;;34.53;33.25;101064.22;1725451;83;21102;-60
2023/08/15 07:57:52;;;;;;;10.53;3.98;;;;;;;34.56;32.83;101064.36;1742010;81;21054;-60
2023/08/15 08:00:31;;;;;;;9.25;4.50;;;;;;;34.67;32.48;101062.55;1751453;82;21226;-59
2023/08/15 08:03:00;;;;;;;8.85;4.80;;;;;;;34.74;32.37;101056.55;1721256;83;21528;-60
2023/08/15 08:05:29;;;;;;;13.75;4.47;;;;;;;34.76;32.54;101054.19;1729337;82;21040;-62
2023/08/15 08:08:01;;;;;;;8.35;4.12;;;;;;;34.92;31.98;101055.28;1750938;82;21032;-62
2023/08/15 08:10:30;;;;;;;8.45;4.50;;;;;;;35.15;31.67;101057.22;1751126;82;21023;-59
2023/08/15 08:13:04;;;;;;;6.03;4.50;;;;;;;35.33;31.07;101059.36;1751145;82;21027;-59
2023/08/15 08:15:33;;;;;;;6.75;3.80;;;;;;;35.42;30.73;101052.99;1751367;82;21044;-63
2023/08/15 08:18:03;;;;;;;8.68;4.20;;;;;;;35.57;30.50;101058.63;1751034;81;21504;-63
2023/08/15 08:20:32;;;;;;;7.80;3.90;;;;;;;35.75;30.08;101056.43;1751209;82;21050;-63
2023/08/15 08:23:01;;;;;;;5.47;3.50;;;;;;;35.90;29.54;101064.37;1751118;81;21019;-66
2023/08/15 08:25:31;;;;;;;7.28;3.80;;;;;;;35.95;28.70;101064.16;1751114;82;21070;-61
2023/08/15 08:28:00;;;;;;;5.97;3.75;;;;;;;35.88;29.17;101063.30;1751397;81;21030;-61
2023/08/15 08:30:32;;;;;;;6.85;4.05;;;;;;;35.85;29.13;101064.60;1751166;81;20983;-62
2023/08/15 08:33:04;;;;;;;6.72;3.50;;;;;;;35.79;28.93;101065.98;1751371;82;21052;-62
2023/08/15 08:35:34;;;;;;;6.60;3.90;;;;;;;35.80;29.45;101061.95;1751251;82;21475;-62
2023/08/15 08:38:04;;;;;;;7.03;3.83;;;;;;;35.90;29.35;101054.39;1751227;82;21428;-62
2023/08/15 08:40:33;;;;;;;12.37;3.87;;;;;;;36.01;29.08;101060.48;1751195;82;21031;-62
2023/08/15 08:43:03;;;;;;;7.42;3.42;;;;;;;36.12;28.90;101056.81;1716113;82;21112;-63
2023/08/15 08:45:33;;;;;;;7.08;3.70;;;;;;;36.00;28.34;101061.07;1722670;82;21151;-63
2023/08/15 08:48:02;;;;;;;5.22;3.58;;;;;;;35.90;28.33;101055.82;1716701;82;21518;-62
2023/08/15 08:50:31;;;;;;;6.55;3.70;;;;;;;35.80;28.56;101056.24;1751397;81;21091;-61
2023/08/15 08:53:00;;;;;;;6.72;3.45;;;;;;;35.72;28.48;101056.55;1779145;80;21062;-60
2023/08/15 08:55:29;;;;;;;9.10;3.70;;;;;;;35.74;28.69;101048.47;1781983;80;21073;-63
2023/08/15 08:58:00;;;;;;;5.97;3.65;;;;;;;35.81;28.45;101046.53;1781961;80;21050;-64
2023/08/15 09:00:32;;;;;;;4.30;3.05;;;;;;;35.81;28.19;101044.51;1782063;80;21066;-62
2023/08/15 09:03:01;;;;;;;5.30;3.60;;;;;;;35.73;28.11;101045.97;1781911;80;21117;-62
2023/08/15 09:05:30;;;;;;;7.28;3.70;;;;;;;35.71;28.13;101044.06;1775644;80;21027;-63
2023/08/15 09:07:59;;;;;;;6.00;3.95;;;;;;;35.65;28.06;101046.30;1764787;80;21071;-67
2023/08/15 09:10:28;;;;;;;7.58;4.20;;;;;;;35.49;28.54;101041.02;1764847;80;21027;-62
2023/08/15 09:13:00;;;;;;;8.68;4.35;;;;;;;35.32;28.71;101039.17;1764771;81;21015;-65
2023/08/15 09:15:29;;;;;;;6.35;3.72;;;;;;;35.22;28.96;101043.25;1764830;81;21090;-62
2023/08/15 09:18:04;;;;;;;5.72;4.03;;;;;;;35.14;28.63;101041.91;1764566;81;21016;-61
2023/08/15 09:20:34;;;;;;;6.28;3.85;;;;;;;34.90;28.97;101040.55;1764759;81;21463;-62
2023/08/15 09:23:04;;;;;;;13.35;4.30;;;;;;;34.64;29.28;101039.28;1737555;81;21074;-62
2023/08/15 09:25:36;;;;;;;12.43;5.17;;;;;;;34.52;29.38;101042.03;1768364;79;21528;-64
2023/08/15 09:28:07;;;;;;;7.28;4.15;;;;;;;34.39;29.87;101040.83;1796277;80;21479;-63
2023/08/15 09:30:37;;;;;;;8.00;4.45;;;;;;;34.37;29.74;101041.17;1796635;80;21012;-63
2023/08/15 09:33:05;;;;;;;9.05;4.83;;;;;;;34.25;29.98;101037.59;1796368;80;21028;-60
2023/08/15 09:35:35;;;;;;;9.75;5.12;;;;;;;34.18;30.29;101033.62;1796357;80;21487;-61
2023/08/15 09:38:06;;;;;;;8.25;4.60;;;;;;;34.10;30.66;101027.37;1745724;80;21480;-60
2023/08/15 09:40:35;;;;;;;8.70;4.83;;;;;;;34.05;30.47;101026.98;1796565;80;21475;-61
2023/08/15 09:43:04;;;;;;;11.68;5.72;;;;;;;33.92;30.78;101021.77;1796495;80;21076;-62
2023/08/15 09:45:33;;;;;;;10.38;4.90;;;;;;;33.78;30.88;101015.39;1796552;80;21106;-64
2023/08/15 09:48:02;;;;;;;7.80;5.10;;;;;;;33.58;31.11;101021.80;1796637;80;21008;-62
2023/08/15 09:50:31;;;;;;;9.30;4.83;;;;;;;33.38;31.62;101021.33;1796555;80;20996;-63
2023/08/15 09:53:01;;;;;;;14.68;5.70;;;;;;;33.31;31.85;101013.91;1796326;80;21083;-63
2023/08/15 09:55:30;;;;;;;6.50;4.90;;;;;;;33.25;32.25;101015.80;1796409;80;21063;-62
2023/08/15 09:57:59;;;;;;;7.78;5.00;;;;;;;33.22;32.34;101014.47;1785635;80;21448;-66
2023/08/15 10:00:29;;;;;;;16.87;5.78;;;;;;;33.26;32.43;101017.48;1769407;81;21032;-62
2023/08/15 10:03:09;;;;;;;7.42;5.40;;;;;;;33.21;32.07;101012.80;1769100;81;21476;-64
2023/08/15 10:05:39;;;;;;;9.58;5.78;;;;;;;33.08;32.09;101005.26;1767559;81;21048;-63
2023/08/15 10:08:08;;;;;;;8.80;5.28;;;;;;;33.01;32.45;101005.76;1765778;81;21020;-62
2023/08/15 10:10:37;;;;;;;7.75;5.30;;;;;;;33.02;32.85;101004.59;1749700;82;20993;-61
2023/08/15 10:13:12;;;;;;;7.20;5.30;;;;;;;33.06;32.55;101007.02;1698997;84;21114;-62
2023/08/15 10:15:41;;;;;;;7.25;5.20;;;;;;;33.12;32.34;101002.00;1757956;81;21052;-61
2023/08/15 10:18:14;;;;;;;10.45;4.90;;;;;;;33.05;31.99;101001.08;1698819;84;21500;-63
2023/08/15 10:20:56;;;;;;;6.83;4.70;;;;;;;32.95;32.01;101002.84;1757993;81;20993;-64
2023/08/15 10:23:34;;;;;;;10.35;5.42;;;;;;;32.91;32.21;100989.64;1699071;84;21134;-61
2023/08/15 10:26:11;;;;;;;6.15;4.75;;;;;;;32.90;32.25;100995.07;1734392;81;21088;-62
2023/08/15 10:28:53;;;;;;;7.12;5.00;;;;;;;32.89;32.16;100986.30;1744601;81;21072;-61
2023/08/15 10:31:36;;;;;;;9.28;4.87;;;;;;;32.87;32.04;100990.06;1744338;82;21075;-61
2023/08/15 10:34:10;;;;;;;6.87;4.67;;;;;;;32.84;32.06;100987.89;1747050;82;21028;-61
2023/08/15 10:36:42;;;;;;;12.43;5.83;;;;;;;32.81;32.07;100991.39;1746847;82;21437;-62
2023/08/15 10:39:12;;;;;;;8.40;4.80;;;;;;;32.76;32.13;100988.10;1760207;81;21092;-62
2023/08/15 10:41:42;;;;;;;7.97;5.50;;;;;;;32.73;32.22;100987.34;1707346;81;21492;-61
2023/08/15 10:44:11;;;;;;;7.30;5.22;;;;;;;32.73;32.54;100982.51;1747147;82;21064;-62
2023/08/15 10:46:41;;;;;;;9.23;6.20;;;;;;;32.77;32.78;100987.80;1760223;81;21452;-62
2023/08/15 10:49:14;;;;;;;13.45;7.08;;;;;;;32.80;32.70;100982.63;1760229;81;21088;-61
2023/08/15 10:51:44;;;;;;;9.38;6.60;;;;;;;32.71;32.97;100980.59;1755487;81;21036;-62
2023/08/15 10:54:14;;;;;;;9.23;6.75;;;;;;;32.59;33.14;100976.73;1760227;81;21095;-64
2023/08/15 10:56:43;;;;;;;7.40;5.33;;;;;;;32.46;33.52;100978.52;1760394;81;21072;-62
2023/08/15 10:59:15;;;;;;;7.83;5.80;;;;;;;32.44;33.14;100973.76;1746721;82;21127;-61
2023/08/15 11:01:46;;;;;;;7.15;5.25;;;;;;;32.45;33.02;100969.75;1760169;81;21055;-63
2023/08/15 11:04:17;;;;;;;10.18;5.28;;;;;;;32.50;32.95;100973.85;1760446;81;21028;-62
2023/08/15 11:06:48;;;;;;;6.78;5.25;;;;;;;32.52;32.85;100974.39;1768878;81;21041;-63
2023/08/15 11:09:18;;;;;;;8.65;5.45;;;;;;;32.47;32.85;100966.84;1771576;81;21044;-60
2023/08/15 11:11:48;;;;;;;9.10;5.72;;;;;;;32.47;32.83;100971.09;1777050;80;21052;-63
2023/08/15 11:14:19;;;;;;;9.25;6.25;;;;;;;32.49;33.13;100966.50;1777018;81;21487;-60
2023/08/15 11:16:48;;;;;;;8.05;6.05;;;;;;;32.49;32.84;100965.09;1777074;81;21013;-61
2023/08/15 11:19:20;;;;;;;12.65;5.92;;;;;;;32.50;32.93;100964.51;1777070;81;21040;-64
2023/08/15 11:21:50;;;;;;;10.70;5.90;;;;;;;32.47;32.95;100954.07;1777081;81;21017;-64
2023/08/15 11:24:20;;;;;;;12.65;8.40;;;;;;;32.48;33.04;100957.74;1776974;81;21157;-63
2023/08/15 11:26:48;;;;;;;7.72;5.58;;;;;;;32.50;32.89;100944.64;1776888;80;21080;-62
2023/08/15 11:29:18;;;;;;;11.38;6.05;;;;;;;32.56;32.88;100947.60;1777061;81;21068;-62
2023/08/15 11:31:48;;;;;;;8.30;5.70;;;;;;;32.59;32.75;100944.09;1776894;81;20993;-62